Time;durP1;ratioP1;P1;durP2;ratioP2;P2;SDS_P1;SDS_P2;PMS_P1;PMS_P2;Temp;Humidity;BMP_temperature;BMP_pressure;BME280_temperature;BME280_humidity;BME280_pressure;Samples;Min_cycle;Max_cycle;Signal;HPM_P1;HPM_P2
2022/05/14 00:00:51;;;;;;;7.78;5.13;;;11.40;99.90;;;;;;4991467;28;20078;-84
2022/05/14 00:03:17;;;;;;;9.52;6.00;;;11.40;99.90;;;;;;5006593;28;20092;-84
2022/05/14 00:05:43;;;;;;;7.45;5.13;;;11.50;99.90;;;;;;4990559;28;20078;-84
2022/05/14 00:08:10;;;;;;;8.68;6.53;;;11.50;99.90;;;;;;4988370;28;20389;-84
2022/05/14 00:13:03;;;;;;;9.38;5.60;;;11.50;99.90;;;;;;5006158;28;20114;-84
2022/05/14 00:13:24;;;;;;;10.10;5.63;;;11.50;99.90;;;;;;4990536;28;20035;-84
2022/05/14 00:15:50;;;;;;;9.07;5.22;;;11.50;99.90;;;;;;4983357;28;20019;-84
2022/05/14 00:18:16;;;;;;;11.60;5.15;;;11.40;99.90;;;;;;4990426;28;20426;-84
2022/05/14 00:20:42;;;;;;;7.18;4.85;;;11.40;99.90;;;;;;4988762;28;20080;-84
2022/05/14 00:23:08;;;;;;;7.90;5.35;;;11.30;99.90;;;;;;4972652;28;20394;-84
2022/05/14 00:25:36;;;;;;;6.57;4.93;;;11.30;99.90;;;;;;4989181;28;20026;-84
2022/05/14 00:28:03;;;;;;;5.60;4.70;;;11.20;99.90;;;;;;4992003;28;20119;-84
2022/05/14 00:30:31;;;;;;;5.00;4.50;;;11.20;99.90;;;;;;4980945;28;20019;-84
2022/05/14 00:32:57;;;;;;;10.45;5.32;;;11.20;99.90;;;;;;4988338;28;20768;-84
2022/05/14 00:35:24;;;;;;;9.98;4.75;;;11.20;99.90;;;;;;5000376;28;20034;-84
2022/05/14 00:37:50;;;;;;;8.48;5.00;;;11.20;99.90;;;;;;4983911;28;20366;-84
2022/05/14 00:40:32;;;;;;;8.80;4.57;;;11.20;99.90;;;;;;4989007;28;20034;-84
2022/05/14 00:42:59;;;;;;;13.98;5.88;;;11.20;99.90;;;;;;4987303;28;20038;-85
2022/05/14 00:45:26;;;;;;;11.75;5.25;;;11.10;99.90;;;;;;4985735;28;20027;-84
2022/05/14 00:47:54;;;;;;;7.22;5.15;;;11.10;99.90;;;;;;4984994;28;20041;-84
2022/05/14 00:50:38;;;;;;;10.25;5.10;;;11.10;99.90;;;;;;4988884;28;20030;-84
2022/05/14 00:53:17;;;;;;;9.63;5.07;;;11.10;99.90;;;;;;4988792;28;20031;-84
2022/05/14 00:55:46;;;;;;;9.38;4.80;;;11.10;99.90;;;;;;4988256;28;20367;-84
2022/05/14 00:58:33;;;;;;;6.80;4.90;;;11.10;99.90;;;;;;4991916;28;20022;-84
2022/05/14 01:00:59;;;;;;;11.13;5.25;;;11.10;99.90;;;;;;4988714;28;20045;-84
2022/05/14 01:03:24;;;;;;;9.82;5.30;;;11.10;99.90;;;;;;5006997;28;20030;-84
2022/05/14 01:05:52;;;;;;;7.22;4.82;;;11.10;99.90;;;;;;4986970;28;20034;-84
2022/05/14 01:08:17;;;;;;;5.72;4.63;;;11.10;99.90;;;;;;4991896;28;20179;-84
2022/05/14 01:10:44;;;;;;;9.02;5.05;;;11.10;99.90;;;;;;5005278;28;20122;-84
2022/05/14 01:13:11;;;;;;;8.98;4.93;;;11.00;99.90;;;;;;4990009;28;20048;-84
2022/05/14 01:15:55;;;;;;;6.47;5.03;;;11.10;99.90;;;;;;4988519;28;20030;-84
2022/05/14 01:18:23;;;;;;;8.50;4.88;;;11.00;99.90;;;;;;4992439;28;20049;-85
2022/05/14 01:21:29;;;;;;;10.15;5.35;;;10.90;99.90;;;;;;4993330;28;20129;-84
2022/05/14 01:26:46;;;;;;;7.72;5.45;;;10.90;99.90;;;;;;4993507;28;20089;-84
2022/05/14 01:29:24;;;;;;;7.47;4.53;;;10.70;99.90;;;;;;4988937;28;20039;-84
2022/05/14 01:31:52;;;;;;;10.18;5.35;;;10.70;99.90;;;;;;4991218;28;20026;-84
2022/05/14 01:34:27;;;;;;;8.27;5.30;;;10.70;99.90;;;;;;4985348;28;20048;-84
2022/05/14 01:36:54;;;;;;;8.63;4.93;;;10.70;99.90;;;;;;5001311;28;20031;-84
2022/05/14 01:39:21;;;;;;;7.25;4.50;;;10.80;99.90;;;;;;4985242;28;20088;-84
2022/05/14 01:41:47;;;;;;;15.02;6.30;;;10.80;99.90;;;;;;4983337;28;20039;-84
2022/05/14 01:44:12;;;;;;;9.15;5.55;;;10.90;99.90;;;;;;4973900;28;20090;-84
2022/05/14 01:46:39;;;;;;;12.02;6.28;;;10.90;99.90;;;;;;4985835;28;20061;-83
2022/05/14 01:49:04;;;;;;;8.02;5.07;;;10.80;99.90;;;;;;4993312;28;20026;-84
2022/05/14 01:51:30;;;;;;;8.55;6.10;;;10.70;99.90;;;;;;4993425;28;20430;-84
2022/05/14 01:53:56;;;;;;;8.85;5.75;;;10.80;99.90;;;;;;4992167;28;20027;-84
2022/05/14 01:56:22;;;;;;;10.30;6.00;;;10.80;99.90;;;;;;4988846;28;20022;-84
2022/05/14 01:58:48;;;;;;;9.88;5.38;;;10.80;99.90;;;;;;4975710;28;20038;-84
2022/05/14 02:01:13;;;;;;;11.25;6.15;;;10.70;99.90;;;;;;4975054;28;20244;-84
2022/05/14 02:03:40;;;;;;;8.18;5.80;;;10.70;99.90;;;;;;4992976;28;20031;-84
2022/05/14 02:06:06;;;;;;;6.78;4.82;;;10.60;99.90;;;;;;4992992;28;20501;-84
2022/05/14 02:08:32;;;;;;;7.65;5.20;;;10.60;99.90;;;;;;4993413;28;20026;-84
2022/05/14 02:10:58;;;;;;;8.10;4.68;;;10.60;99.90;;;;;;4991967;28;20034;-84
2022/05/14 02:13:25;;;;;;;10.32;5.47;;;10.50;99.90;;;;;;4996231;28;20030;-84
2022/05/14 02:15:51;;;;;;;8.63;4.90;;;10.60;99.90;;;;;;4988406;28;20031;-84
2022/05/14 02:18:18;;;;;;;11.77;5.25;;;10.50;99.90;;;;;;5006100;28;20034;-84
2022/05/14 02:20:43;;;;;;;10.50;4.80;;;10.50;99.90;;;;;;4971642;28;20026;-84
2022/05/14 02:23:09;;;;;;;17.00;5.93;;;10.50;99.90;;;;;;4988807;28;20027;-84
2022/05/14 02:25:35;;;;;;;11.48;6.00;;;10.30;99.90;;;;;;4986105;28;20718;-84
2022/05/14 02:28:01;;;;;;;13.15;5.70;;;10.30;99.90;;;;;;4989800;28;20032;-84
2022/05/14 02:30:27;;;;;;;17.40;7.20;;;10.30;99.90;;;;;;4998483;28;20031;-84
2022/05/14 02:32:53;;;;;;;13.75;6.45;;;10.30;99.90;;;;;;4985973;28;20406;-84
2022/05/14 02:35:19;;;;;;;11.23;6.28;;;10.20;99.90;;;;;;5005640;28;20109;-84
2022/05/14 02:37:44;;;;;;;10.50;5.97;;;10.20;99.90;;;;;;5006885;28;20126;-84
2022/05/14 02:40:11;;;;;;;12.50;6.90;;;10.20;99.90;;;;;;4985841;28;20031;-84
2022/05/14 02:42:37;;;;;;;10.30;6.57;;;10.20;99.90;;;;;;4985849;28;20065;-84
2022/05/14 02:45:03;;;;;;;11.27;7.57;;;10.20;99.90;;;;;;5006352;28;20042;-84
2022/05/14 02:47:30;;;;;;;11.85;8.00;;;10.20;99.90;;;;;;4991173;28;20060;-84
2022/05/14 02:49:56;;;;;;;12.95;6.97;;;10.10;99.90;;;;;;4991618;28;20042;-84
2022/05/14 02:52:23;;;;;;;12.73;7.70;;;10.20;99.90;;;;;;4993088;28;20102;-84
2022/05/14 02:54:49;;;;;;;11.35;6.60;;;10.10;99.90;;;;;;4995506;28;20065;-84
2022/05/14 02:57:17;;;;;;;13.32;7.07;;;10.20;99.90;;;;;;4985928;28;20026;-84
2022/05/14 02:59:42;;;;;;;11.45;7.20;;;10.10;99.90;;;;;;5012639;28;20021;-83
2022/05/14 03:02:08;;;;;;;14.43;8.35;;;10.10;99.90;;;;;;5022564;28;20098;-84
2022/05/14 03:04:37;;;;;;;14.93;7.80;;;10.10;99.90;;;;;;4996287;28;20461;-84
2022/05/14 03:07:06;;;;;;;14.02;8.25;;;10.20;99.90;;;;;;4994582;28;20026;-84
2022/05/14 03:09:31;;;;;;;18.55;9.18;;;10.10;99.90;;;;;;4979093;28;20129;-84
2022/05/14 03:11:57;;;;;;;15.65;8.10;;;10.10;99.90;;;;;;5006991;28;20447;-84
2022/05/14 03:14:23;;;;;;;12.27;7.90;;;10.10;99.90;;;;;;4991149;28;20431;-84
2022/05/14 03:16:48;;;;;;;13.27;8.48;;;10.10;99.90;;;;;;5006575;28;20037;-84
2022/05/14 03:19:14;;;;;;;12.65;8.52;;;10.10;99.90;;;;;;5005621;28;20084;-84
2022/05/14 03:21:40;;;;;;;11.75;7.40;;;10.00;99.90;;;;;;4987855;28;20030;-84
2022/05/14 03:24:06;;;;;;;12.60;8.57;;;9.90;99.90;;;;;;4996881;28;20046;-84
2022/05/14 03:26:32;;;;;;;11.82;7.22;;;9.90;99.90;;;;;;4985936;28;20034;-84
2022/05/14 03:28:58;;;;;;;17.67;8.27;;;9.90;99.90;;;;;;4985297;28;20484;-84
2022/05/14 03:31:23;;;;;;;11.80;7.90;;;9.80;99.90;;;;;;4982874;28;20513;-84
2022/05/14 03:33:49;;;;;;;20.13;7.60;;;9.80;99.90;;;;;;4987642;28;20049;-83
2022/05/14 03:36:15;;;;;;;12.68;7.25;;;9.90;99.90;;;;;;4979490;28;20022;-84
2022/05/14 03:38:41;;;;;;;15.43;7.88;;;9.90;99.90;;;;;;4990470;28;20057;-84
2022/05/14 03:41:07;;;;;;;13.35;6.95;;;9.90;99.90;;;;;;4989471;28;20038;-83
2022/05/14 03:43:33;;;;;;;14.88;7.35;;;9.90;99.90;;;;;;4983021;28;20031;-84
2022/05/14 03:45:59;;;;;;;12.77;7.88;;;9.70;99.90;;;;;;5002569;28;20760;-84
2022/05/14 03:48:25;;;;;;;11.73;7.22;;;9.60;99.90;;;;;;4989549;28;20037;-84
2022/05/14 03:50:52;;;;;;;12.07;7.63;;;9.60;99.90;;;;;;5005164;28;20389;-84
2022/05/14 03:53:18;;;;;;;13.40;8.18;;;9.60;99.90;;;;;;4988926;28;20042;-84
2022/05/14 03:55:44;;;;;;;17.25;9.75;;;9.60;99.90;;;;;;4990630;28;20751;-84
2022/05/14 03:58:11;;;;;;;15.68;9.77;;;9.60;99.90;;;;;;4990721;28;20080;-84
2022/05/14 04:00:37;;;;;;;18.67;10.95;;;9.50;99.90;;;;;;4989301;28;20062;-84
2022/05/14 04:03:03;;;;;;;16.58;10.48;;;9.50;99.90;;;;;;4979243;28;20459;-84
2022/05/14 04:05:30;;;;;;;21.05;10.20;;;9.50;99.90;;;;;;5005639;28;20030;-84
2022/05/14 04:07:55;;;;;;;19.10;10.95;;;9.50;99.90;;;;;;4990539;28;20061;-84
2022/05/14 04:10:21;;;;;;;20.98;11.07;;;9.50;99.90;;;;;;4979581;28;20509;-84
2022/05/14 04:12:47;;;;;;;15.65;11.05;;;9.50;99.90;;;;;;5003408;28;20391;-84
2022/05/14 04:15:14;;;;;;;19.33;10.32;;;9.50;99.90;;;;;;4990287;28;20027;-84
2022/05/14 04:17:40;;;;;;;19.70;9.63;;;9.40;99.90;;;;;;4990797;28;20117;-84
2022/05/14 04:20:07;;;;;;;18.95;11.50;;;9.50;99.90;;;;;;4990644;28;20117;-84
2022/05/14 04:22:33;;;;;;;23.45;11.20;;;9.60;99.90;;;;;;4989469;28;20027;-84
2022/05/14 04:24:59;;;;;;;30.58;11.50;;;9.60;99.90;;;;;;4989753;28;20030;-84
2022/05/14 04:27:25;;;;;;;23.63;11.63;;;9.60;99.90;;;;;;4989541;28;20092;-84
2022/05/14 04:29:52;;;;;;;31.13;11.80;;;9.70;99.90;;;;;;4990355;28;20049;-84
2022/05/14 04:32:19;;;;;;;18.17;11.70;;;9.70;99.90;;;;;;4988507;28;20034;-84
2022/05/14 04:34:45;;;;;;;18.02;11.25;;;9.80;99.90;;;;;;5002987;28;20045;-83
2022/05/14 04:37:11;;;;;;;20.27;11.15;;;9.90;99.90;;;;;;4994353;28;20074;-84
2022/05/14 04:39:37;;;;;;;18.27;11.00;;;10.00;99.90;;;;;;4990276;28;20548;-85
2022/05/14 04:42:06;;;;;;;16.92;9.88;;;10.10;99.90;;;;;;4989973;28;20030;-84
2022/05/14 04:44:33;;;;;;;15.77;10.18;;;10.10;99.90;;;;;;4988863;28;20034;-84
2022/05/14 04:47:00;;;;;;;15.38;9.02;;;10.00;99.90;;;;;;4988927;28;20055;-84
2022/05/14 04:49:26;;;;;;;15.55;9.43;;;10.00;99.90;;;;;;5005952;28;20114;-84
2022/05/14 04:51:52;;;;;;;16.35;9.38;;;10.00;99.90;;;;;;4990993;28;20100;-84
2022/05/14 04:54:18;;;;;;;14.50;9.82;;;10.00;99.90;;;;;;5010014;28;20031;-84
2022/05/14 04:56:44;;;;;;;30.58;10.70;;;10.10;99.90;;;;;;5009832;28;20038;-84
2022/05/14 04:59:10;;;;;;;15.10;9.85;;;10.20;99.90;;;;;;4994324;28;20031;-84
2022/05/14 05:01:36;;;;;;;18.08;9.75;;;10.30;99.90;;;;;;5007943;28;20042;-84
2022/05/14 05:04:02;;;;;;;16.35;9.15;;;10.40;99.90;;;;;;4994010;28;20038;-84
2022/05/14 05:06:28;;;;;;;21.38;10.40;;;10.50;99.90;;;;;;4988591;28;20096;-84
2022/05/14 05:08:54;;;;;;;17.70;10.05;;;10.60;99.90;;;;;;4996539;28;20014;-84
2022/05/14 05:11:21;;;;;;;22.05;9.90;;;10.80;99.90;;;;;;4993213;28;20076;-84
2022/05/14 05:13:47;;;;;;;16.13;9.98;;;10.90;99.90;;;;;;4993832;28;20028;-83
2022/05/14 05:16:12;;;;;;;17.58;10.60;;;11.10;99.90;;;;;;4992875;28;20101;-82
2022/05/14 05:18:39;;;;;;;13.60;8.93;;;11.40;99.90;;;;;;4995950;28;20034;-82
2022/05/14 05:21:06;;;;;;;16.38;10.30;;;11.50;99.90;;;;;;4993120;28;20027;-83
2022/05/14 05:23:32;;;;;;;19.58;9.85;;;11.70;99.90;;;;;;4992267;28;20065;-83
2022/05/14 05:25:58;;;;;;;18.38;11.48;;;11.80;99.90;;;;;;4993408;28;20058;-84
2022/05/14 05:28:25;;;;;;;15.48;8.68;;;11.80;99.90;;;;;;5008817;28;20117;-83
2022/05/14 05:30:51;;;;;;;14.60;9.65;;;12.00;99.90;;;;;;5005485;28;20045;-84
2022/05/14 05:33:20;;;;;;;13.27;9.57;;;11.90;99.90;;;;;;4992242;28;20019;-83
2022/05/14 05:35:46;;;;;;;14.70;8.32;;;12.00;99.90;;;;;;5001921;28;20062;-84
2022/05/14 05:38:11;;;;;;;12.75;9.00;;;12.10;99.90;;;;;;4992907;28;20058;-84
2022/05/14 05:40:37;;;;;;;12.85;8.38;;;12.10;99.90;;;;;;5011483;28;20023;-83
2022/05/14 05:43:08;;;;;;;16.55;8.48;;;12.20;99.90;;;;;;4999994;28;20030;-85
2022/05/14 05:45:35;;;;;;;14.02;8.77;;;12.40;99.90;;;;;;5006990;28;20113;-85
2022/05/14 05:48:01;;;;;;;11.00;6.72;;;12.60;99.90;;;;;;5007210;28;20027;-86
2022/05/14 05:50:27;;;;;;;12.20;6.60;;;12.80;99.90;;;;;;4998727;28;20057;-86
2022/05/14 05:52:54;;;;;;;10.25;6.35;;;13.00;99.90;;;;;;4997806;28;20124;-86
2022/05/14 05:58:04;;;;;;;15.43;8.45;;;13.20;99.90;;;;;;4993530;28;20394;-84
2022/05/14 06:00:31;;;;;;;13.73;7.80;;;13.50;99.90;;;;;;4992602;28;20041;-83
2022/05/14 06:02:57;;;;;;;13.75;7.70;;;13.50;99.90;;;;;;4993859;28;20031;-84
2022/05/14 06:05:23;;;;;;;15.27;7.45;;;13.70;99.90;;;;;;5012343;28;20038;-83
2022/05/14 06:07:49;;;;;;;13.40;8.50;;;13.70;99.90;;;;;;5006768;28;20029;-84
2022/05/14 06:10:18;;;;;;;37.45;9.40;;;13.70;99.90;;;;;;5025222;28;20062;-84
2022/05/14 06:12:46;;;;;;;14.38;9.88;;;13.70;99.90;;;;;;4997016;28;20039;-84
2022/05/14 06:15:15;;;;;;;16.63;8.82;;;13.90;99.90;;;;;;4991589;28;20026;-84
2022/05/14 06:17:43;;;;;;;16.52;8.32;;;14.00;99.90;;;;;;4990302;28;20080;-83
2022/05/14 06:20:11;;;;;;;12.50;6.22;;;14.10;99.90;;;;;;4990392;28;20378;-84
2022/05/14 06:22:37;;;;;;;11.63;5.60;;;14.20;99.30;;;;;;4987513;28;20514;-84
2022/05/14 06:25:05;;;;;;;10.60;5.43;;;14.20;99.90;;;;;;4989926;28;20088;-83
2022/05/14 06:27:30;;;;;;;14.73;5.95;;;14.30;99.90;;;;;;5005785;28;20042;-83
2022/05/14 06:29:56;;;;;;;10.07;4.85;;;14.40;99.90;;;;;;4988680;28;20023;-84
2022/05/14 06:32:22;;;;;;;7.63;3.42;;;14.50;99.90;;;;;;5006749;28;20347;-83
2022/05/14 06:34:47;;;;;;;8.20;4.03;;;14.50;92.60;;;;;;4986220;28;20053;-82
2022/05/14 06:37:13;;;;;;;5.97;3.30;;;14.70;95.20;;;;;;5006567;28;20096;-82
2022/05/14 06:39:40;;;;;;;6.25;3.13;;;14.80;94.30;;;;;;4990930;28;20042;-81
2022/05/14 06:42:06;;;;;;;9.23;3.78;;;14.80;93.00;;;;;;4990182;28;20089;-83
2022/05/14 06:44:32;;;;;;;6.78;3.70;;;14.90;93.00;;;;;;5005596;28;20054;-83
2022/05/14 06:46:58;;;;;;;5.93;3.10;;;15.00;92.40;;;;;;5011662;28;20153;-83
2022/05/14 06:49:24;;;;;;;7.60;3.33;;;15.10;90.30;;;;;;5007156;28;20553;-83
2022/05/14 06:51:52;;;;;;;7.53;2.83;;;15.20;89.60;;;;;;5006443;28;20037;-84
2022/05/14 06:54:20;;;;;;;12.90;3.28;;;15.20;78.50;;;;;;4990652;28;20394;-83
2022/05/14 06:56:46;;;;;;;6.90;3.10;;;15.30;81.30;;;;;;4991908;28;20058;-84
2022/05/14 06:59:14;;;;;;;5.70;3.03;;;15.40;78.90;;;;;;4991539;28;20030;-84
2022/05/14 07:01:42;;;;;;;4.85;3.22;;;15.40;75.20;;;;;;4985772;28;20049;-84
2022/05/14 07:06:55;;;;;;;10.90;4.15;;;15.60;86.40;;;;;;4997815;28;20076;-84
2022/05/14 07:09:27;;;;;;;10.55;4.75;;;15.70;91.00;;;;;;4973898;28;20077;-83
2022/05/14 07:11:56;;;;;;;9.90;4.55;;;15.90;89.10;;;;;;4991520;28;20037;-84
2022/05/14 07:14:23;;;;;;;10.40;4.82;;;16.00;86.40;;;;;;4991455;28;20462;-84
2022/05/14 07:16:50;;;;;;;10.15;4.75;;;16.10;83.50;;;;;;5005142;28;20038;-83
2022/05/14 07:19:16;;;;;;;9.15;5.10;;;16.20;88.20;;;;;;5008269;28;20056;-83
2022/05/14 07:21:44;;;;;;;10.45;4.95;;;16.30;86.80;;;;;;4989985;28;20716;-83
2022/05/14 07:24:15;;;;;;;9.05;5.18;;;16.40;89.90;;;;;;4991726;28;20034;-83
2022/05/14 07:26:41;;;;;;;7.07;4.30;;;16.50;84.20;;;;;;4985278;28;20119;-83
2022/05/14 07:29:10;;;;;;;10.23;6.03;;;16.50;86.10;;;;;;4991020;28;20030;-84
2022/05/14 07:31:36;;;;;;;10.20;5.30;;;16.70;93.50;;;;;;5005781;28;20039;-84
2022/05/14 07:34:03;;;;;;;11.48;4.72;;;16.70;82.60;;;;;;5006511;28;20109;-83
2022/05/14 07:36:33;;;;;;;8.93;4.35;;;16.80;84.30;;;;;;4981490;28;20411;-83
2022/05/14 07:39:04;;;;;;;11.80;4.35;;;16.90;75.20;;;;;;4982388;28;20027;-83
2022/05/14 07:41:31;;;;;;;11.35;4.72;;;17.10;81.60;;;;;;4990817;28;20061;-84
2022/05/14 07:43:59;;;;;;;10.15;4.70;;;17.20;75.40;;;;;;4990748;28;20042;-84
2022/05/14 07:46:29;;;;;;;14.48;5.25;;;17.20;79.60;;;;;;4991010;28;20173;-83
2022/05/14 07:48:57;;;;;;;8.32;4.38;;;17.20;75.00;;;;;;4987433;28;20030;-83
2022/05/14 07:51:25;;;;;;;8.68;3.75;;;17.50;81.90;;;;;;4990867;28;20022;-83
2022/05/14 07:53:51;;;;;;;11.45;4.38;;;17.60;68.20;;;;;;4988562;28;20031;-82
2022/05/14 07:56:17;;;;;;;6.68;3.92;;;17.60;68.70;;;;;;4986826;28;20023;-83
2022/05/14 07:58:44;;;;;;;8.82;4.63;;;17.70;71.80;;;;;;4990191;28;20462;-82
2022/05/14 08:01:10;;;;;;;9.27;4.15;;;17.60;65.00;;;;;;4999295;28;20042;-82
2022/05/14 08:03:36;;;;;;;11.48;4.80;;;17.70;66.30;;;;;;4988135;28;20026;-81
2022/05/14 08:06:02;;;;;;;17.50;5.22;;;17.80;74.50;;;;;;5001787;28;20050;-87
2022/05/14 08:08:28;;;;;;;7.57;4.82;;;18.10;63.20;;;;;;4969543;28;20034;-82
2022/05/14 08:10:55;;;;;;;13.13;4.50;;;18.00;61.40;;;;;;4973996;28;20035;-81
2022/05/14 08:13:23;;;;;;;7.93;3.60;;;18.10;62.50;;;;;;4989673;28;20389;-82
2022/05/14 08:15:50;;;;;;;9.30;4.07;;;18.20;65.80;;;;;;4989434;28;20038;-82
2022/05/14 08:18:17;;;;;;;9.15;4.00;;;18.40;58.50;;;;;;4980628;28;20027;-82
2022/05/14 08:20:44;;;;;;;11.38;4.63;;;18.50;57.40;;;;;;4974699;28;20070;-83
2022/05/14 08:26:04;;;;;;;19.13;6.18;;;18.80;68.90;;;;;;4983385;28;20081;-82
2022/05/14 08:28:45;;;;;;;11.90;6.18;;;19.00;65.50;;;;;;4990677;28;20038;-82
2022/05/14 08:31:16;;;;;;;14.65;5.82;;;19.00;67.30;;;;;;4998224;28;20039;-82
2022/05/14 08:37:04;;;;;;;11.75;5.43;;;19.00;71.00;;;;;;4956873;28;20046;-83
2022/05/14 08:39:32;;;;;;;12.75;6.28;;;19.40;66.70;;;;;;4981648;28;20187;-83
2022/05/14 08:42:00;;;;;;;13.00;6.15;;;19.60;60.30;;;;;;4990415;28;20092;-82
2022/05/14 08:44:33;;;;;;;17.10;6.95;;;19.60;63.20;;;;;;4989417;28;20085;-83
2022/05/14 08:47:06;;;;;;;12.18;5.85;;;19.70;66.30;;;;;;4985582;28;20450;-83
2022/05/14 08:49:33;;;;;;;15.30;7.18;;;19.50;58.00;;;;;;4979106;28;20505;-83
2022/05/14 08:52:00;;;;;;;14.73;6.72;;;19.50;62.60;;;;;;4987351;28;20026;-83
2022/05/14 08:54:26;;;;;;;18.92;8.57;;;19.70;59.70;;;;;;4993306;28;20052;-84
2022/05/14 08:56:58;;;;;;;13.20;7.22;;;19.80;58.40;;;;;;4989495;28;20627;-84
2022/05/14 08:59:49;;;;;;;17.58;7.97;;;19.70;58.10;;;;;;4990111;28;20379;-83
2022/05/14 09:02:28;;;;;;;16.80;9.02;;;20.00;60.70;;;;;;4974290;28;20042;-84
2022/05/14 09:05:04;;;;;;;14.90;7.15;;;20.30;59.90;;;;;;4985933;28;20057;-85
2022/05/14 09:07:30;;;;;;;20.13;8.00;;;20.20;60.90;;;;;;4985336;28;20422;-85
2022/05/14 09:09:58;;;;;;;15.77;7.18;;;20.50;61.80;;;;;;5006144;28;20493;-85
2022/05/14 09:12:29;;;;;;;13.85;6.65;;;20.30;59.30;;;;;;5005333;28;20034;-83
2022/05/14 09:15:00;;;;;;;11.73;6.53;;;20.50;56.90;;;;;;5002077;28;20108;-85
2022/05/14 09:17:29;;;;;;;14.63;6.38;;;20.80;55.30;;;;;;5006615;28;20042;-84
2022/05/14 09:19:57;;;;;;;12.68;6.95;;;21.00;53.80;;;;;;5009869;28;20072;-85
2022/05/14 09:22:22;;;;;;;12.88;6.65;;;20.80;52.80;;;;;;5021086;28;20074;-85
2022/05/14 09:25:04;;;;;;;13.02;6.15;;;21.10;60.50;;;;;;5014676;28;20030;-84
2022/05/14 09:27:37;;;;;;;10.60;6.05;;;20.80;57.70;;;;;;4996792;28;20049;-84
2022/05/14 09:30:07;;;;;;;11.40;6.32;;;21.10;57.10;;;;;;4988936;28;20038;-84
2022/05/14 09:32:40;;;;;;;13.32;6.63;;;21.30;55.40;;;;;;5003475;28;20334;-85
2022/05/14 09:35:20;;;;;;;14.95;6.20;;;21.60;49.70;;;;;;4988917;28;20026;-85
2022/05/14 09:37:46;;;;;;;14.77;6.67;;;21.60;57.40;;;;;;5005696;28;20058;-85
2022/05/14 09:40:20;;;;;;;8.75;5.97;;;21.70;50.00;;;;;;4987758;28;20062;-85
2022/05/14 09:43:05;;;;;;;11.63;6.30;;;22.20;49.20;;;;;;4993259;28;20042;-85
2022/05/14 09:45:35;;;;;;;11.20;6.25;;;22.60;49.00;;;;;;4992325;28;20046;-85
2022/05/14 09:48:17;;;;;;;14.00;6.88;;;22.20;48.20;;;;;;4988546;28;20179;-85
2022/05/14 09:50:46;;;;;;;11.70;6.57;;;22.00;47.50;;;;;;4986117;28;20040;-85
2022/05/14 09:53:12;;;;;;;12.30;7.00;;;21.70;49.50;;;;;;4994163;28;20029;-86
2022/05/14 09:56:01;;;;;;;13.13;5.88;;;22.50;48.70;;;;;;5000150;28;20022;-85
2022/05/14 09:58:30;;;;;;;11.52;5.53;;;22.50;49.60;;;;;;4993902;28;20034;-85
2022/05/14 10:01:03;;;;;;;10.10;5.68;;;22.60;49.30;;;;;;4991130;28;20030;-85
2022/05/14 10:04:00;;;;;;;12.77;6.78;;;22.60;54.70;;;;;;4995927;28;20033;-85
2022/05/14 10:06:47;;;;;;;15.82;6.10;;;22.90;50.60;;;;;;4989488;28;20794;-85
2022/05/14 10:09:40;;;;;;;17.25;8.93;;;22.80;48.70;;;;;;4976731;28;20426;-85
2022/05/14 10:12:25;;;;;;;11.00;6.25;;;22.70;51.20;;;;;;4980854;28;20795;-85
2022/05/14 10:15:05;;;;;;;12.43;5.88;;;23.20;45.10;;;;;;4994283;28;20490;-85
2022/05/14 10:17:59;;;;;;;10.48;6.20;;;23.20;53.30;;;;;;4994981;28;20425;-85
2022/05/14 10:20:37;;;;;;;13.88;6.10;;;23.20;50.70;;;;;;4976278;28;20026;-85
2022/05/14 10:26:47;;;;;;;9.70;5.60;;;23.50;52.30;;;;;;4996579;28;20045;-85
2022/05/14 10:29:16;;;;;;;10.05;5.57;;;24.00;51.60;;;;;;5015485;28;20084;-85
2022/05/14 10:31:41;;;;;;;10.07;6.20;;;23.90;47.20;;;;;;4999985;28;20073;-85
2022/05/14 10:34:16;;;;;;;11.52;5.97;;;24.20;45.60;;;;;;5014624;28;20027;-87
2022/05/14 10:36:45;;;;;;;12.15;6.35;;;23.80;45.60;;;;;;5000350;28;20034;-86
2022/05/14 10:39:20;;;;;;;11.52;6.60;;;24.20;49.40;;;;;;4997609;28;20031;-87
2022/05/14 10:41:48;;;;;;;9.63;6.30;;;24.60;43.10;;;;;;4992138;28;20157;-87
2022/05/14 10:44:27;;;;;;;12.57;5.78;;;24.50;42.60;;;;;;4991703;28;20076;-85
2022/05/14 10:46:58;;;;;;;13.48;6.38;;;24.30;44.40;;;;;;5007194;28;20050;-84
2022/05/14 10:49:42;;;;;;;10.15;5.70;;;24.10;42.70;;;;;;4971059;28;20034;-85
2022/05/14 10:52:15;;;;;;;13.60;6.15;;;24.60;41.20;;;;;;4975163;28;20486;-86
2022/05/14 10:54:43;;;;;;;9.70;5.10;;;24.40;41.20;;;;;;5004876;28;20038;-85
2022/05/14 10:57:15;;;;;;;11.80;5.97;;;25.00;44.40;;;;;;4990768;28;20072;-85
2022/05/14 11:00:02;;;;;;;12.20;5.88;;;25.60;43.10;;;;;;4991804;28;20026;-85
2022/05/14 11:02:33;;;;;;;13.23;5.40;;;26.20;45.20;;;;;;4992108;28;21543;-85
2022/05/14 11:05:00;;;;;;;14.02;6.40;;;26.40;42.40;;;;;;4986273;28;20026;-85
2022/05/14 11:07:25;;;;;;;9.85;5.47;;;26.80;40.90;;;;;;4991902;28;20609;-86
2022/05/14 11:09:51;;;;;;;11.68;5.80;;;27.50;35.70;;;;;;5006561;28;20026;-85
2022/05/14 11:12:20;;;;;;;11.18;5.78;;;28.70;33.30;;;;;;5006658;28;20032;-85
2022/05/14 11:14:51;;;;;;;11.65;5.40;;;27.80;38.10;;;;;;4991094;28;20026;-85
2022/05/14 11:17:17;;;;;;;9.43;5.80;;;26.90;35.30;;;;;;4988115;28;20046;-85
2022/05/14 11:19:43;;;;;;;7.40;6.10;;;27.10;35.50;;;;;;4972220;28;20343;-85
2022/05/14 11:22:26;;;;;;;10.70;5.22;;;27.20;36.50;;;;;;4989118;28;20042;-85
2022/05/14 11:24:52;;;;;;;8.90;5.25;;;27.70;35.60;;;;;;4984213;28;20030;-85
2022/05/14 11:27:31;;;;;;;11.00;6.18;;;27.50;34.80;;;;;;4974383;28;20042;-85
2022/05/14 11:30:02;;;;;;;13.73;5.60;;;27.40;35.20;;;;;;4983230;28;20027;-85
2022/05/14 11:32:56;;;;;;;8.95;5.55;;;27.60;34.90;;;;;;4997103;28;20457;-86
2022/05/14 11:35:22;;;;;;;11.10;5.18;;;28.10;34.50;;;;;;4980991;28;20109;-85
2022/05/14 11:37:51;;;;;;;8.88;5.55;;;27.90;33.40;;;;;;4947999;28;20525;-85
2022/05/14 11:40:19;;;;;;;7.20;5.05;;;27.30;35.50;;;;;;4980503;28;20034;-85
2022/05/14 11:42:50;;;;;;;13.52;5.50;;;27.90;34.30;;;;;;4987960;28;20037;-85
2022/05/14 11:45:26;;;;;;;7.18;4.95;;;27.90;33.50;;;;;;5003651;28;20041;-85
2022/05/14 11:48:18;;;;;;;9.75;5.30;;;29.40;32.40;;;;;;4986813;28;20042;-85
2022/05/14 11:50:58;;;;;;;11.52;5.15;;;29.10;30.90;;;;;;4982342;28;20034;-85
2022/05/14 11:53:33;;;;;;;;;;;28.70;34.10;;;;;;5003973;28;20045;-85
2022/05/14 11:56:37;;;;;;;9.02;5.05;;;28.70;33.50;;;;;;4983991;28;19968;-84
2022/05/14 11:59:17;;;;;;;11.27;5.22;;;28.50;34.10;;;;;;4987831;28;20085;-85
2022/05/14 12:01:45;;;;;;;10.25;5.68;;;29.30;34.30;;;;;;4985172;28;20053;-85
2022/05/14 12:04:36;;;;;;;8.40;5.63;;;29.50;30.50;;;;;;4989417;28;20118;-86
2022/05/14 12:07:10;;;;;;;9.95;4.97;;;30.00;29.50;;;;;;4986888;28;20038;-85
2022/05/14 12:10:06;;;;;;;8.13;4.75;;;29.40;30.90;;;;;;5007672;28;20029;-86
2022/05/14 12:12:38;;;;;;;7.25;4.53;;;30.70;30.30;;;;;;4992870;28;20041;-84
2022/05/14 12:15:14;;;;;;;6.97;5.03;;;30.40;28.60;;;;;;4987589;28;20295;-86
2022/05/14 12:17:47;;;;;;;8.27;4.70;;;28.80;30.10;;;;;;4990033;28;20030;-86
2022/05/14 12:20:22;;;;;;;8.48;5.38;;;28.90;29.70;;;;;;4983426;28;20066;-87
2022/05/14 12:22:56;;;;;;;8.90;4.97;;;29.00;31.00;;;;;;4991089;28;20529;-86
2022/05/14 12:25:37;;;;;;;9.85;4.85;;;29.00;29.10;;;;;;5002352;28;20042;-85
2022/05/14 12:28:03;;;;;;;9.10;5.22;;;29.10;29.80;;;;;;5013089;28;20010;-87
2022/05/14 12:33:23;;;;;;;10.90;5.38;;;30.10;29.80;;;;;;5004519;28;20025;-84
2022/05/14 12:35:57;;;;;;;8.80;4.80;;;29.70;29.10;;;;;;4986530;28;20390;-85
2022/05/14 12:38:36;;;;;;;8.63;4.60;;;29.90;31.10;;;;;;4988360;28;20022;-85
2022/05/14 12:41:05;;;;;;;9.75;4.80;;;30.30;28.50;;;;;;4972360;28;20098;-85
2022/05/14 12:43:31;;;;;;;10.02;4.97;;;30.90;28.90;;;;;;4979468;28;20031;-85
2022/05/14 12:46:07;;;;;;;7.90;5.43;;;32.00;26.90;;;;;;5004810;28;20513;-85
2022/05/14 12:48:46;;;;;;;5.65;5.05;;;30.80;28.20;;;;;;4998903;28;20667;-85
2022/05/14 12:51:22;;;;;;;8.25;5.22;;;30.90;28.80;;;;;;5004755;28;20045;-85
2022/05/14 12:53:48;;;;;;;5.97;4.55;;;30.60;27.60;;;;;;4989380;28;20646;-85
2022/05/14 12:56:16;;;;;;;8.00;4.57;;;31.40;27.20;;;;;;4983558;28;20041;-85
2022/05/14 12:58:42;;;;;;;10.05;4.82;;;31.30;26.90;;;;;;4989141;28;20373;-85
2022/05/14 13:01:10;;;;;;;9.38;5.03;;;30.30;30.10;;;;;;5005235;28;20031;-85
2022/05/14 13:03:59;;;;;;;8.63;4.40;;;31.40;31.20;;;;;;4988018;28;20121;-84
2022/05/14 13:06:29;;;;;;;9.05;4.85;;;32.00;29.30;;;;;;4977975;28;20102;-85
2022/05/14 13:08:59;;;;;;;11.70;4.97;;;32.20;28.40;;;;;;4988565;28;20040;-86
2022/05/14 13:11:28;;;;;;;10.43;4.47;;;32.00;30.20;;;;;;4989960;28;20038;-86
2022/05/14 13:13:56;;;;;;;;;;;32.10;28.70;;;;;;4989867;28;20502;-85